sensor_id;sensor_type;location;lat;lon;timestamp;P1;durP1;ratioP1;P2;durP2;ratioP2
61038;SDS011;46919;45.816;3.104;2023-04-15T00:00:41;3.78;;;0.95;;
61038;SDS011;46919;45.816;3.104;2023-04-15T00:03:07;2.67;;;0.70;;
61038;SDS011;46919;45.816;3.104;2023-04-15T00:05:32;4.55;;;0.88;;
61038;SDS011;46919;45.816;3.104;2023-04-15T00:07:58;2.65;;;0.60;;
61038;SDS011;46919;45.816;3.104;2023-04-15T00:10:25;3.90;;;0.60;;
61038;SDS011;46919;45.816;3.104;2023-04-15T00:12:51;2.00;;;0.50;;
61038;SDS011;46919;45.816;3.104;2023-04-15T00:15:17;3.67;;;0.52;;
61038;SDS011;46919;45.816;3.104;2023-04-15T00:17:42;3.80;;;0.75;;
61038;SDS011;46919;45.816;3.104;2023-04-15T00:20:08;2.67;;;0.70;;
61038;SDS011;46919;45.816;3.104;2023-04-15T00:22:34;5.65;;;0.80;;
61038;SDS011;46919;45.816;3.104;2023-04-15T00:25:00;3.03;;;0.45;;
61038;SDS011;46919;45.816;3.104;2023-04-15T00:27:26;3.38;;;0.60;;
61038;SDS011;46919;45.816;3.104;2023-04-15T00:29:51;3.15;;;0.82;;
61038;SDS011;46919;45.816;3.104;2023-04-15T00:32:16;3.17;;;0.95;;
61038;SDS011;46919;45.816;3.104;2023-04-15T00:34:42;2.10;;;0.40;;
61038;SDS011;46919;45.816;3.104;2023-04-15T00:37:08;1.98;;;0.47;;
61038;SDS011;46919;45.816;3.104;2023-04-15T00:39:34;1.88;;;0.38;;
61038;SDS011;46919;45.816;3.104;2023-04-15T00:42:00;1.83;;;0.38;;
61038;SDS011;46919;45.816;3.104;2023-04-15T00:44:26;0.73;;;0.25;;
61038;SDS011;46919;45.816;3.104;2023-04-15T00:46:52;1.73;;;0.40;;
61038;SDS011;46919;45.816;3.104;2023-04-15T00:49:18;0.80;;;0.30;;
61038;SDS011;46919;45.816;3.104;2023-04-15T00:51:43;1.15;;;0.15;;
61038;SDS011;46919;45.816;3.104;2023-04-15T00:54:08;0.47;;;0.10;;
61038;SDS011;46919;45.816;3.104;2023-04-15T00:56:34;0.80;;;0.17;;
61038;SDS011;46919;45.816;3.104;2023-04-15T00:59:02;1.75;;;0.30;;
61038;SDS011;46919;45.816;3.104;2023-04-15T01:01:28;0.10;;;0.10;;
61038;SDS011;46919;45.816;3.104;2023-04-15T01:03:55;0.65;;;0.10;;
61038;SDS011;46919;45.816;3.104;2023-04-15T01:06:22;2.03;;;0.38;;
61038;SDS011;46919;45.816;3.104;2023-04-15T01:08:47;0.75;;;0.10;;
61038;SDS011;46919;45.816;3.104;2023-04-15T01:11:13;0.90;;;0.20;;
61038;SDS011;46919;45.816;3.104;2023-04-15T01:13:39;0.60;;;0.17;;
61038;SDS011;46919;45.816;3.104;2023-04-15T01:16:05;1.48;;;0.20;;
61038;SDS011;46919;45.816;3.104;2023-04-15T01:18:32;0.10;;;0.10;;
61038;SDS011;46919;45.816;3.104;2023-04-15T01:21:02;0.35;;;0.20;;
61038;SDS011;46919;45.816;3.104;2023-04-15T01:23:29;0.17;;;0.05;;
61038;SDS011;46919;45.816;3.104;2023-04-15T01:25:55;0.10;;;0.10;;
61038;SDS011;46919;45.816;3.104;2023-04-15T01:28:21;0.55;;;0.13;;
61038;SDS011;46919;45.816;3.104;2023-04-15T01:30:47;1.10;;;0.28;;
61038;SDS011;46919;45.816;3.104;2023-04-15T01:33:12;1.38;;;0.30;;
61038;SDS011;46919;45.816;3.104;2023-04-15T01:35:38;1.52;;;0.40;;
61038;SDS011;46919;45.816;3.104;2023-04-15T01:38:04;3.03;;;0.65;;
61038;SDS011;46919;45.816;3.104;2023-04-15T01:40:31;0.82;;;0.30;;
61038;SDS011;46919;45.816;3.104;2023-04-15T01:42:57;3.17;;;0.40;;
61038;SDS011;46919;45.816;3.104;2023-04-15T01:45:23;1.30;;;0.40;;
61038;SDS011;46919;45.816;3.104;2023-04-15T01:47:48;1.52;;;0.35;;
61038;SDS011;46919;45.816;3.104;2023-04-15T01:50:14;1.90;;;0.38;;
61038;SDS011;46919;45.816;3.104;2023-04-15T01:52:40;3.63;;;0.38;;
61038;SDS011;46919;45.816;3.104;2023-04-15T01:55:05;3.35;;;1.05;;
61038;SDS011;46919;45.816;3.104;2023-04-15T01:57:32;3.33;;;0.30;;
61038;SDS011;46919;45.816;3.104;2023-04-15T01:59:58;2.97;;;0.40;;
61038;SDS011;46919;45.816;3.104;2023-04-15T02:02:23;1.75;;;0.40;;
61038;SDS011;46919;45.816;3.104;2023-04-15T02:04:49;2.20;;;0.50;;
61038;SDS011;46919;45.816;3.104;2023-04-15T02:07:14;1.88;;;0.38;;
61038;SDS011;46919;45.816;3.104;2023-04-15T02:09:39;1.35;;;0.35;;
61038;SDS011;46919;45.816;3.104;2023-04-15T02:12:05;1.92;;;0.30;;
61038;SDS011;46919;45.816;3.104;2023-04-15T02:14:30;1.17;;;0.30;;
61038;SDS011;46919;45.816;3.104;2023-04-15T02:16:56;2.28;;;0.73;;
61038;SDS011;46919;45.816;3.104;2023-04-15T02:19:21;0.30;;;0.10;;
61038;SDS011;46919;45.816;3.104;2023-04-15T02:21:47;1.77;;;0.30;;
61038;SDS011;46919;45.816;3.104;2023-04-15T02:24:12;2.38;;;0.30;;
61038;SDS011;46919;45.816;3.104;2023-04-15T02:26:37;1.25;;;0.38;;
61038;SDS011;46919;45.816;3.104;2023-04-15T02:29:03;1.20;;;0.50;;
61038;SDS011;46919;45.816;3.104;2023-04-15T02:31:28;1.63;;;0.47;;
61038;SDS011;46919;45.816;3.104;2023-04-15T02:33:54;0.98;;;0.20;;
61038;SDS011;46919;45.816;3.104;2023-04-15T02:36:19;0.52;;;0.20;;
61038;SDS011;46919;45.816;3.104;2023-04-15T02:38:45;2.17;;;0.35;;
61038;SDS011;46919;45.816;3.104;2023-04-15T02:41:10;1.25;;;0.30;;
61038;SDS011;46919;45.816;3.104;2023-04-15T02:43:36;0.63;;;0.22;;
61038;SDS011;46919;45.816;3.104;2023-04-15T02:46:03;1.98;;;0.20;;
61038;SDS011;46919;45.816;3.104;2023-04-15T02:48:29;2.13;;;0.40;;
61038;SDS011;46919;45.816;3.104;2023-04-15T02:51:09;1.75;;;0.22;;
61038;SDS011;46919;45.816;3.104;2023-04-15T02:53:45;1.50;;;0.47;;
61038;SDS011;46919;45.816;3.104;2023-04-15T02:56:10;1.70;;;0.30;;
61038;SDS011;46919;45.816;3.104;2023-04-15T02:58:36;2.35;;;0.60;;
61038;SDS011;46919;45.816;3.104;2023-04-15T03:01:02;4.45;;;0.57;;
61038;SDS011;46919;45.816;3.104;2023-04-15T03:03:27;3.53;;;0.70;;
61038;SDS011;46919;45.816;3.104;2023-04-15T03:05:53;2.33;;;0.60;;
61038;SDS011;46919;45.816;3.104;2023-04-15T03:08:18;3.33;;;0.52;;
61038;SDS011;46919;45.816;3.104;2023-04-15T03:10:45;2.08;;;0.40;;
61038;SDS011;46919;45.816;3.104;2023-04-15T03:13:11;2.53;;;0.50;;
61038;SDS011;46919;45.816;3.104;2023-04-15T03:15:36;2.60;;;0.40;;
61038;SDS011;46919;45.816;3.104;2023-04-15T03:18:02;5.15;;;0.90;;
61038;SDS011;46919;45.816;3.104;2023-04-15T03:20:27;2.78;;;0.70;;
61038;SDS011;46919;45.816;3.104;2023-04-15T03:22:53;2.72;;;0.50;;
61038;SDS011;46919;45.816;3.104;2023-04-15T03:25:18;4.60;;;0.70;;
61038;SDS011;46919;45.816;3.104;2023-04-15T03:27:44;5.38;;;0.73;;
61038;SDS011;46919;45.816;3.104;2023-04-15T03:30:10;4.93;;;0.70;;
61038;SDS011;46919;45.816;3.104;2023-04-15T03:32:36;3.60;;;0.82;;
61038;SDS011;46919;45.816;3.104;2023-04-15T03:35:01;3.63;;;0.80;;
61038;SDS011;46919;45.816;3.104;2023-04-15T03:37:27;3.25;;;0.40;;
61038;SDS011;46919;45.816;3.104;2023-04-15T03:39:52;2.00;;;0.40;;
61038;SDS011;46919;45.816;3.104;2023-04-15T03:42:18;2.45;;;0.40;;
61038;SDS011;46919;45.816;3.104;2023-04-15T03:44:43;2.53;;;0.40;;
61038;SDS011;46919;45.816;3.104;2023-04-15T03:47:09;2.75;;;0.50;;
61038;SDS011;46919;45.816;3.104;2023-04-15T03:49:35;1.85;;;0.47;;
61038;SDS011;46919;45.816;3.104;2023-04-15T03:52:01;0.50;;;0.20;;
61038;SDS011;46919;45.816;3.104;2023-04-15T03:54:26;1.35;;;0.28;;
61038;SDS011;46919;45.816;3.104;2023-04-15T03:56:52;0.75;;;0.20;;
61038;SDS011;46919;45.816;3.104;2023-04-15T03:59:17;2.33;;;0.40;;
61038;SDS011;46919;45.816;3.104;2023-04-15T04:01:42;1.70;;;0.28;;
61038;SDS011;46919;45.816;3.104;2023-04-15T04:04:08;5.47;;;0.50;;
61038;SDS011;46919;45.816;3.104;2023-04-15T04:06:33;1.27;;;0.45;;
61038;SDS011;46919;45.816;3.104;2023-04-15T04:08:59;2.03;;;0.57;;
61038;SDS011;46919;45.816;3.104;2023-04-15T04:11:25;2.50;;;0.63;;
61038;SDS011;46919;45.816;3.104;2023-04-15T04:13:52;1.52;;;0.43;;
61038;SDS011;46919;45.816;3.104;2023-04-15T04:16:17;1.33;;;0.50;;
61038;SDS011;46919;45.816;3.104;2023-04-15T04:18:43;2.00;;;0.50;;
61038;SDS011;46919;45.816;3.104;2023-04-15T04:21:08;2.20;;;0.50;;
61038;SDS011;46919;45.816;3.104;2023-04-15T04:23:34;1.65;;;0.50;;
61038;SDS011;46919;45.816;3.104;2023-04-15T04:25:59;2.10;;;0.50;;
61038;SDS011;46919;45.816;3.104;2023-04-15T04:28:25;6.22;;;0.80;;
61038;SDS011;46919;45.816;3.104;2023-04-15T04:30:51;2.63;;;0.43;;
61038;SDS011;46919;45.816;3.104;2023-04-15T04:33:16;2.35;;;0.38;;
61038;SDS011;46919;45.816;3.104;2023-04-15T04:35:42;2.78;;;0.47;;
61038;SDS011;46919;45.816;3.104;2023-04-15T04:38:07;3.03;;;0.50;;
61038;SDS011;46919;45.816;3.104;2023-04-15T04:40:32;2.05;;;0.47;;
61038;SDS011;46919;45.816;3.104;2023-04-15T04:42:58;2.17;;;0.57;;
61038;SDS011;46919;45.816;3.104;2023-04-15T04:45:24;2.53;;;0.73;;
61038;SDS011;46919;45.816;3.104;2023-04-15T04:47:49;1.83;;;0.63;;
61038;SDS011;46919;45.816;3.104;2023-04-15T04:50:15;2.47;;;0.45;;
61038;SDS011;46919;45.816;3.104;2023-04-15T04:52:40;2.80;;;0.63;;
61038;SDS011;46919;45.816;3.104;2023-04-15T04:55:06;1.85;;;0.50;;
61038;SDS011;46919;45.816;3.104;2023-04-15T04:57:32;1.30;;;0.50;;
61038;SDS011;46919;45.816;3.104;2023-04-15T05:00:00;1.63;;;0.30;;
61038;SDS011;46919;45.816;3.104;2023-04-15T05:02:26;2.20;;;0.50;;
61038;SDS011;46919;45.816;3.104;2023-04-15T05:04:51;2.08;;;0.50;;
61038;SDS011;46919;45.816;3.104;2023-04-15T05:07:18;1.65;;;0.20;;
61038;SDS011;46919;45.816;3.104;2023-04-15T05:09:45;2.50;;;0.50;;
61038;SDS011;46919;45.816;3.104;2023-04-15T05:12:10;1.70;;;0.52;;
61038;SDS011;46919;45.816;3.104;2023-04-15T05:14:39;1.67;;;0.55;;
61038;SDS011;46919;45.816;3.104;2023-04-15T05:17:07;1.95;;;0.50;;
61038;SDS011;46919;45.816;3.104;2023-04-15T05:19:33;3.08;;;0.55;;
61038;SDS011;46919;45.816;3.104;2023-04-15T05:21:59;0.98;;;0.32;;
61038;SDS011;46919;45.816;3.104;2023-04-15T05:24:24;1.88;;;0.70;;
61038;SDS011;46919;45.816;3.104;2023-04-15T05:26:50;1.10;;;0.40;;
61038;SDS011;46919;45.816;3.104;2023-04-15T05:29:16;0.32;;;0.25;;
61038;SDS011;46919;45.816;3.104;2023-04-15T05:31:41;0.75;;;0.20;;
61038;SDS011;46919;45.816;3.104;2023-04-15T05:34:07;0.90;;;0.20;;
61038;SDS011;46919;45.816;3.104;2023-04-15T05:36:32;1.15;;;0.20;;
61038;SDS011;46919;45.816;3.104;2023-04-15T05:38:58;0.70;;;0.30;;
61038;SDS011;46919;45.816;3.104;2023-04-15T05:41:23;1.38;;;0.50;;
61038;SDS011;46919;45.816;3.104;2023-04-15T05:43:49;2.60;;;0.40;;
61038;SDS011;46919;45.816;3.104;2023-04-15T05:46:14;1.10;;;0.50;;
61038;SDS011;46919;45.816;3.104;2023-04-15T05:48:40;1.10;;;0.30;;
61038;SDS011;46919;45.816;3.104;2023-04-15T05:51:05;1.33;;;0.50;;
61038;SDS011;46919;45.816;3.104;2023-04-15T05:53:31;0.85;;;0.30;;
61038;SDS011;46919;45.816;3.104;2023-04-15T05:55:56;1.13;;;0.30;;
61038;SDS011;46919;45.816;3.104;2023-04-15T05:58:22;1.30;;;0.38;;
61038;SDS011;46919;45.816;3.104;2023-04-15T06:00:47;1.95;;;0.55;;
61038;SDS011;46919;45.816;3.104;2023-04-15T06:03:12;2.40;;;0.60;;
61038;SDS011;46919;45.816;3.104;2023-04-15T06:05:38;1.65;;;0.57;;
61038;SDS011;46919;45.816;3.104;2023-04-15T06:08:04;0.80;;;0.30;;
61038;SDS011;46919;45.816;3.104;2023-04-15T06:10:30;2.05;;;0.60;;
61038;SDS011;46919;45.816;3.104;2023-04-15T06:13:00;0.73;;;0.40;;
61038;SDS011;46919;45.816;3.104;2023-04-15T06:15:26;1.77;;;0.40;;
61038;SDS011;46919;45.816;3.104;2023-04-15T06:17:51;0.82;;;0.30;;
61038;SDS011;46919;45.816;3.104;2023-04-15T06:20:16;1.33;;;0.28;;
61038;SDS011;46919;45.816;3.104;2023-04-15T06:22:42;1.40;;;0.40;;
61038;SDS011;46919;45.816;3.104;2023-04-15T06:25:07;1.63;;;0.38;;
61038;SDS011;46919;45.816;3.104;2023-04-15T06:27:33;0.88;;;0.30;;
61038;SDS011;46919;45.816;3.104;2023-04-15T06:29:58;1.55;;;0.50;;
61038;SDS011;46919;45.816;3.104;2023-04-15T06:32:24;2.20;;;0.63;;
61038;SDS011;46919;45.816;3.104;2023-04-15T06:34:50;1.17;;;0.40;;
61038;SDS011;46919;45.816;3.104;2023-04-15T06:37:15;1.50;;;0.50;;
61038;SDS011;46919;45.816;3.104;2023-04-15T06:39:41;1.85;;;0.40;;
61038;SDS011;46919;45.816;3.104;2023-04-15T06:42:12;1.67;;;0.68;;
61038;SDS011;46919;45.816;3.104;2023-04-15T06:44:37;2.40;;;0.68;;
61038;SDS011;46919;45.816;3.104;2023-04-15T06:47:03;1.45;;;0.43;;
61038;SDS011;46919;45.816;3.104;2023-04-15T06:49:28;3.92;;;1.60;;
61038;SDS011;46919;45.816;3.104;2023-04-15T06:51:54;2.20;;;0.65;;
61038;SDS011;46919;45.816;3.104;2023-04-15T06:54:19;1.35;;;0.40;;
61038;SDS011;46919;45.816;3.104;2023-04-15T06:56:45;1.63;;;0.52;;
61038;SDS011;46919;45.816;3.104;2023-04-15T06:59:11;0.88;;;0.40;;
61038;SDS011;46919;45.816;3.104;2023-04-15T07:01:36;0.65;;;0.30;;
61038;SDS011;46919;45.816;3.104;2023-04-15T07:04:02;1.08;;;0.40;;
61038;SDS011;46919;45.816;3.104;2023-04-15T07:06:27;1.20;;;0.32;;
61038;SDS011;46919;45.816;3.104;2023-04-15T07:08:53;0.80;;;0.40;;
61038;SDS011;46919;45.816;3.104;2023-04-15T07:11:19;2.03;;;0.60;;
61038;SDS011;46919;45.816;3.104;2023-04-15T07:13:45;1.48;;;0.45;;
61038;SDS011;46919;45.816;3.104;2023-04-15T07:16:10;1.33;;;0.40;;
61038;SDS011;46919;45.816;3.104;2023-04-15T07:18:36;2.78;;;0.50;;
61038;SDS011;46919;45.816;3.104;2023-04-15T07:21:02;1.00;;;0.50;;
61038;SDS011;46919;45.816;3.104;2023-04-15T07:23:27;0.88;;;0.32;;
61038;SDS011;46919;45.816;3.104;2023-04-15T07:25:53;1.25;;;0.50;;
61038;SDS011;46919;45.816;3.104;2023-04-15T07:28:18;1.10;;;0.40;;
61038;SDS011;46919;45.816;3.104;2023-04-15T07:30:44;0.52;;;0.38;;
61038;SDS011;46919;45.816;3.104;2023-04-15T07:33:09;1.40;;;0.40;;
61038;SDS011;46919;45.816;3.104;2023-04-15T07:35:35;3.05;;;0.50;;
61038;SDS011;46919;45.816;3.104;2023-04-15T07:38:00;1.67;;;0.30;;
61038;SDS011;46919;45.816;3.104;2023-04-15T07:40:26;1.25;;;0.50;;
61038;SDS011;46919;45.816;3.104;2023-04-15T07:42:52;1.27;;;0.40;;
61038;SDS011;46919;45.816;3.104;2023-04-15T07:45:17;3.70;;;1.00;;
61038;SDS011;46919;45.816;3.104;2023-04-15T07:47:43;1.23;;;0.47;;
61038;SDS011;46919;45.816;3.104;2023-04-15T07:50:08;2.88;;;0.50;;
61038;SDS011;46919;45.816;3.104;2023-04-15T07:52:37;2.15;;;0.40;;
61038;SDS011;46919;45.816;3.104;2023-04-15T07:55:04;0.52;;;0.20;;
61038;SDS011;46919;45.816;3.104;2023-04-15T07:57:33;0.95;;;0.30;;
61038;SDS011;46919;45.816;3.104;2023-04-15T07:59:59;1.05;;;0.25;;
61038;SDS011;46919;45.816;3.104;2023-04-15T08:02:25;0.30;;;0.20;;
61038;SDS011;46919;45.816;3.104;2023-04-15T08:04:51;1.73;;;0.40;;
61038;SDS011;46919;45.816;3.104;2023-04-15T08:07:17;2.05;;;1.10;;
61038;SDS011;46919;45.816;3.104;2023-04-15T08:09:43;1.42;;;0.85;;
61038;SDS011;46919;45.816;3.104;2023-04-15T08:12:08;1.65;;;1.15;;
61038;SDS011;46919;45.816;3.104;2023-04-15T08:14:37;1.25;;;0.60;;
61038;SDS011;46919;45.816;3.104;2023-04-15T08:17:03;1.67;;;0.38;;
61038;SDS011;46919;45.816;3.104;2023-04-15T08:19:28;1.73;;;0.60;;
61038;SDS011;46919;45.816;3.104;2023-04-15T08:21:54;2.45;;;0.88;;
61038;SDS011;46919;45.816;3.104;2023-04-15T08:24:21;0.40;;;0.30;;
61038;SDS011;46919;45.816;3.104;2023-04-15T08:26:46;1.80;;;0.47;;
61038;SDS011;46919;45.816;3.104;2023-04-15T08:29:12;1.50;;;0.50;;
61038;SDS011;46919;45.816;3.104;2023-04-15T08:31:37;0.80;;;0.50;;
61038;SDS011;46919;45.816;3.104;2023-04-15T08:34:03;1.25;;;0.30;;
61038;SDS011;46919;45.816;3.104;2023-04-15T08:36:28;1.30;;;0.30;;
61038;SDS011;46919;45.816;3.104;2023-04-15T08:38:54;2.22;;;0.40;;
61038;SDS011;46919;45.816;3.104;2023-04-15T08:41:20;1.45;;;0.50;;
61038;SDS011;46919;45.816;3.104;2023-04-15T08:43:52;1.00;;;0.40;;
61038;SDS011;46919;45.816;3.104;2023-04-15T08:46:29;1.83;;;0.90;;
61038;SDS011;46919;45.816;3.104;2023-04-15T08:48:56;1.70;;;0.50;;
61038;SDS011;46919;45.816;3.104;2023-04-15T08:51:22;1.65;;;0.45;;
61038;SDS011;46919;45.816;3.104;2023-04-15T08:53:49;2.60;;;0.60;;
61038;SDS011;46919;45.816;3.104;2023-04-15T08:56:15;2.22;;;0.50;;
61038;SDS011;46919;45.816;3.104;2023-04-15T08:58:41;1.05;;;0.40;;
61038;SDS011;46919;45.816;3.104;2023-04-15T09:01:09;2.83;;;0.73;;
61038;SDS011;46919;45.816;3.104;2023-04-15T09:03:38;1.83;;;0.55;;
61038;SDS011;46919;45.816;3.104;2023-04-15T09:06:04;2.28;;;0.70;;
61038;SDS011;46919;45.816;3.104;2023-04-15T09:08:31;1.85;;;0.60;;
61038;SDS011;46919;45.816;3.104;2023-04-15T09:10:58;1.70;;;0.50;;
61038;SDS011;46919;45.816;3.104;2023-04-15T09:13:24;2.20;;;0.63;;
61038;SDS011;46919;45.816;3.104;2023-04-15T09:15:49;3.17;;;1.00;;
61038;SDS011;46919;45.816;3.104;2023-04-15T09:18:25;1.35;;;0.68;;
61038;SDS011;46919;45.816;3.104;2023-04-15T09:20:53;1.73;;;0.50;;
61038;SDS011;46919;45.816;3.104;2023-04-15T09:23:18;1.42;;;0.40;;
61038;SDS011;46919;45.816;3.104;2023-04-15T09:25:44;2.67;;;0.63;;
61038;SDS011;46919;45.816;3.104;2023-04-15T09:28:10;7.90;;;0.95;;
61038;SDS011;46919;45.816;3.104;2023-04-15T09:30:36;2.17;;;0.73;;
61038;SDS011;46919;45.816;3.104;2023-04-15T09:33:02;5.07;;;0.70;;
61038;SDS011;46919;45.816;3.104;2023-04-15T09:35:32;1.70;;;0.60;;
61038;SDS011;46919;45.816;3.104;2023-04-15T09:38:04;3.47;;;0.57;;
61038;SDS011;46919;45.816;3.104;2023-04-15T09:42:57;2.88;;;0.60;;
61038;SDS011;46919;45.816;3.104;2023-04-15T09:45:23;2.38;;;0.60;;
61038;SDS011;46919;45.816;3.104;2023-04-15T09:47:49;2.60;;;0.50;;
61038;SDS011;46919;45.816;3.104;2023-04-15T09:50:18;2.65;;;0.63;;
61038;SDS011;46919;45.816;3.104;2023-04-15T09:52:45;2.33;;;0.65;;
61038;SDS011;46919;45.816;3.104;2023-04-15T09:55:11;2.42;;;0.50;;
61038;SDS011;46919;45.816;3.104;2023-04-15T09:57:38;2.78;;;0.60;;
61038;SDS011;46919;45.816;3.104;2023-04-15T10:00:08;1.88;;;0.60;;
61038;SDS011;46919;45.816;3.104;2023-04-15T10:02:35;1.88;;;0.50;;
61038;SDS011;46919;45.816;3.104;2023-04-15T10:05:02;1.08;;;0.70;;
61038;SDS011;46919;45.816;3.104;2023-04-15T10:07:28;3.25;;;0.60;;
61038;SDS011;46919;45.816;3.104;2023-04-15T10:09:54;2.00;;;0.55;;
61038;SDS011;46919;45.816;3.104;2023-04-15T10:12:20;0.95;;;0.30;;
61038;SDS011;46919;45.816;3.104;2023-04-15T10:14:55;0.68;;;0.30;;
61038;SDS011;46919;45.816;3.104;2023-04-15T10:17:29;4.43;;;0.85;;
61038;SDS011;46919;45.816;3.104;2023-04-15T10:19:59;4.45;;;0.45;;
61038;SDS011;46919;45.816;3.104;2023-04-15T10:22:26;2.90;;;0.68;;
61038;SDS011;46919;45.816;3.104;2023-04-15T10:24:52;2.40;;;0.70;;
61038;SDS011;46919;45.816;3.104;2023-04-15T10:27:19;1.95;;;0.57;;
61038;SDS011;46919;45.816;3.104;2023-04-15T10:29:46;2.08;;;0.50;;
61038;SDS011;46919;45.816;3.104;2023-04-15T10:32:13;7.35;;;0.68;;
61038;SDS011;46919;45.816;3.104;2023-04-15T10:34:40;1.25;;;0.43;;
61038;SDS011;46919;45.816;3.104;2023-04-15T10:37:08;0.98;;;0.43;;
61038;SDS011;46919;45.816;3.104;2023-04-15T10:42:07;1.48;;;0.50;;
61038;SDS011;46919;45.816;3.104;2023-04-15T10:44:34;0.85;;;0.57;;
61038;SDS011;46919;45.816;3.104;2023-04-15T10:47:03;2.80;;;0.40;;
61038;SDS011;46919;45.816;3.104;2023-04-15T10:49:34;1.38;;;0.60;;
61038;SDS011;46919;45.816;3.104;2023-04-15T10:52:09;1.73;;;0.50;;
61038;SDS011;46919;45.816;3.104;2023-04-15T10:54:35;1.27;;;0.50;;
61038;SDS011;46919;45.816;3.104;2023-04-15T10:59:32;1.80;;;0.52;;
61038;SDS011;46919;45.816;3.104;2023-04-15T11:02:02;2.42;;;0.60;;
61038;SDS011;46919;45.816;3.104;2023-04-15T11:08:06;2.65;;;0.70;;
61038;SDS011;46919;45.816;3.104;2023-04-15T11:12:42;3.08;;;0.70;;
61038;SDS011;46919;45.816;3.104;2023-04-15T11:17:53;5.82;;;0.88;;
61038;SDS011;46919;45.816;3.104;2023-04-15T11:20:19;2.05;;;0.55;;
61038;SDS011;46919;45.816;3.104;2023-04-15T11:22:49;2.10;;;0.57;;
61038;SDS011;46919;45.816;3.104;2023-04-15T11:25:22;1.10;;;0.70;;
61038;SDS011;46919;45.816;3.104;2023-04-15T11:27:48;6.47;;;0.75;;
61038;SDS011;46919;45.816;3.104;2023-04-15T11:30:18;2.85;;;0.90;;
61038;SDS011;46919;45.816;3.104;2023-04-15T11:32:53;3.28;;;0.80;;
61038;SDS011;46919;45.816;3.104;2023-04-15T11:35:19;1.60;;;0.73;;
61038;SDS011;46919;45.816;3.104;2023-04-15T11:37:46;2.15;;;0.60;;
61038;SDS011;46919;45.816;3.104;2023-04-15T11:40:16;1.75;;;0.63;;
61038;SDS011;46919;45.816;3.104;2023-04-15T11:42:47;3.55;;;0.80;;
61038;SDS011;46919;45.816;3.104;2023-04-15T11:45:46;1.63;;;0.55;;
61038;SDS011;46919;45.816;3.104;2023-04-15T11:48:41;2.75;;;0.80;;
61038;SDS011;46919;45.816;3.104;2023-04-15T11:51:08;2.05;;;0.70;;
61038;SDS011;46919;45.816;3.104;2023-04-15T11:56:06;1.92;;;0.80;;
61038;SDS011;46919;45.816;3.104;2023-04-15T11:58:33;5.25;;;1.02;;
61038;SDS011;46919;45.816;3.104;2023-04-15T12:01:01;3.30;;;0.73;;
61038;SDS011;46919;45.816;3.104;2023-04-15T12:03:30;3.22;;;0.85;;
61038;SDS011;46919;45.816;3.104;2023-04-15T12:11:14;1.48;;;0.73;;
61038;SDS011;46919;45.816;3.104;2023-04-15T12:13:45;3.00;;;0.80;;
61038;SDS011;46919;45.816;3.104;2023-04-15T12:16:11;3.05;;;0.93;;
61038;SDS011;46919;45.816;3.104;2023-04-15T12:18:37;1.25;;;0.50;;
61038;SDS011;46919;45.816;3.104;2023-04-15T12:21:09;6.43;;;0.70;;
61038;SDS011;46919;45.816;3.104;2023-04-15T12:23:54;5.93;;;0.93;;
61038;SDS011;46919;45.816;3.104;2023-04-15T12:26:27;3.50;;;0.70;;
61038;SDS011;46919;45.816;3.104;2023-04-15T12:28:58;1.98;;;0.80;;
61038;SDS011;46919;45.816;3.104;2023-04-15T12:31:25;4.38;;;1.10;;
61038;SDS011;46919;45.816;3.104;2023-04-15T12:33:50;2.75;;;0.70;;
61038;SDS011;46919;45.816;3.104;2023-04-15T12:36:19;2.35;;;0.80;;
61038;SDS011;46919;45.816;3.104;2023-04-15T12:38:45;2.65;;;0.90;;
61038;SDS011;46919;45.816;3.104;2023-04-15T12:41:10;3.13;;;0.70;;
61038;SDS011;46919;45.816;3.104;2023-04-15T12:43:36;4.30;;;0.90;;
61038;SDS011;46919;45.816;3.104;2023-04-15T12:46:01;2.78;;;0.88;;
61038;SDS011;46919;45.816;3.104;2023-04-15T12:48:26;1.75;;;0.70;;
61038;SDS011;46919;45.816;3.104;2023-04-15T12:50:52;3.40;;;0.90;;
61038;SDS011;46919;45.816;3.104;2023-04-15T12:53:17;2.10;;;1.10;;
61038;SDS011;46919;45.816;3.104;2023-04-15T12:55:43;2.13;;;0.80;;
61038;SDS011;46919;45.816;3.104;2023-04-15T12:58:08;4.88;;;1.10;;
61038;SDS011;46919;45.816;3.104;2023-04-15T13:00:35;0.77;;;0.63;;
61038;SDS011;46919;45.816;3.104;2023-04-15T13:03:01;4.85;;;1.15;;
61038;SDS011;46919;45.816;3.104;2023-04-15T13:05:27;3.30;;;1.00;;
61038;SDS011;46919;45.816;3.104;2023-04-15T13:07:52;1.58;;;0.50;;
61038;SDS011;46919;45.816;3.104;2023-04-15T13:10:18;1.48;;;0.60;;
61038;SDS011;46919;45.816;3.104;2023-04-15T13:12:43;3.88;;;0.80;;
61038;SDS011;46919;45.816;3.104;2023-04-15T13:15:11;1.70;;;0.85;;
61038;SDS011;46919;45.816;3.104;2023-04-15T13:17:37;5.60;;;1.10;;
61038;SDS011;46919;45.816;3.104;2023-04-15T13:20:02;2.33;;;0.73;;
61038;SDS011;46919;45.816;3.104;2023-04-15T13:22:28;2.28;;;0.60;;
61038;SDS011;46919;45.816;3.104;2023-04-15T13:24:53;3.15;;;0.90;;
61038;SDS011;46919;45.816;3.104;2023-04-15T13:27:19;3.15;;;0.70;;
61038;SDS011;46919;45.816;3.104;2023-04-15T13:29:45;2.28;;;0.90;;
61038;SDS011;46919;45.816;3.104;2023-04-15T13:32:10;3.22;;;0.80;;
61038;SDS011;46919;45.816;3.104;2023-04-15T13:34:36;2.42;;;0.80;;
61038;SDS011;46919;45.816;3.104;2023-04-15T13:37:05;1.92;;;0.70;;
61038;SDS011;46919;45.816;3.104;2023-04-15T13:39:31;2.45;;;0.70;;
61038;SDS011;46919;45.816;3.104;2023-04-15T13:41:57;4.57;;;0.80;;
61038;SDS011;46919;45.816;3.104;2023-04-15T13:44:22;3.28;;;0.60;;
61038;SDS011;46919;45.816;3.104;2023-04-15T13:46:48;2.38;;;0.63;;
61038;SDS011;46919;45.816;3.104;2023-04-15T13:49:13;3.47;;;0.70;;
61038;SDS011;46919;45.816;3.104;2023-04-15T13:51:38;3.20;;;0.77;;
61038;SDS011;46919;45.816;3.104;2023-04-15T13:54:04;2.00;;;0.63;;
61038;SDS011;46919;45.816;3.104;2023-04-15T13:56:30;4.18;;;0.77;;
61038;SDS011;46919;45.816;3.104;2023-04-15T13:58:55;1.73;;;1.00;;
61038;SDS011;46919;45.816;3.104;2023-04-15T14:01:23;4.63;;;1.10;;
61038;SDS011;46919;45.816;3.104;2023-04-15T14:03:49;3.80;;;1.20;;
61038;SDS011;46919;45.816;3.104;2023-04-15T14:06:15;2.53;;;0.70;;
61038;SDS011;46919;45.816;3.104;2023-04-15T14:08:40;2.65;;;0.98;;
61038;SDS011;46919;45.816;3.104;2023-04-15T14:11:06;3.70;;;1.00;;
61038;SDS011;46919;45.816;3.104;2023-04-15T14:13:31;1.50;;;0.90;;
61038;SDS011;46919;45.816;3.104;2023-04-15T14:15:57;3.42;;;0.80;;
61038;SDS011;46919;45.816;3.104;2023-04-15T14:18:22;1.83;;;0.75;;
61038;SDS011;46919;45.816;3.104;2023-04-15T14:20:47;1.38;;;0.70;;
61038;SDS011;46919;45.816;3.104;2023-04-15T14:23:13;3.65;;;1.05;;
61038;SDS011;46919;45.816;3.104;2023-04-15T14:25:38;3.63;;;0.90;;
61038;SDS011;46919;45.816;3.104;2023-04-15T14:28:04;2.85;;;1.00;;
61038;SDS011;46919;45.816;3.104;2023-04-15T14:30:29;1.67;;;0.93;;
61038;SDS011;46919;45.816;3.104;2023-04-15T14:32:55;2.13;;;0.80;;
61038;SDS011;46919;45.816;3.104;2023-04-15T14:35:20;2.75;;;0.73;;
61038;SDS011;46919;45.816;3.104;2023-04-15T14:37:46;2.28;;;1.00;;
61038;SDS011;46919;45.816;3.104;2023-04-15T14:40:11;3.13;;;1.20;;
61038;SDS011;46919;45.816;3.104;2023-04-15T14:42:36;1.60;;;1.00;;
61038;SDS011;46919;45.816;3.104;2023-04-15T14:45:02;2.38;;;1.00;;
61038;SDS011;46919;45.816;3.104;2023-04-15T14:47:27;4.93;;;1.00;;
61038;SDS011;46919;45.816;3.104;2023-04-15T14:49:53;2.97;;;1.02;;
61038;SDS011;46919;45.816;3.104;2023-04-15T14:52:18;2.03;;;1.08;;
61038;SDS011;46919;45.816;3.104;2023-04-15T14:54:43;3.30;;;1.00;;
61038;SDS011;46919;45.816;3.104;2023-04-15T14:57:09;2.67;;;1.00;;
61038;SDS011;46919;45.816;3.104;2023-04-15T14:59:34;2.10;;;1.30;;
61038;SDS011;46919;45.816;3.104;2023-04-15T15:02:00;1.90;;;0.93;;
61038;SDS011;46919;45.816;3.104;2023-04-15T15:04:25;5.68;;;1.20;;
61038;SDS011;46919;45.816;3.104;2023-04-15T15:06:50;2.15;;;1.10;;